createdAt,value
2024-01-11T00:01:25.929Z,101166.97
2024-01-11T00:03:56.282Z,101165.28
2024-01-11T00:06:26.339Z,101172.34
2024-01-11T00:08:56.416Z,101179.41
2024-01-11T00:11:27.361Z,101171.66
2024-01-11T00:13:57.202Z,101178.38
2024-01-11T00:16:28.465Z,101176.53
2024-01-11T00:18:58.543Z,101176.88
2024-01-11T00:21:28.586Z,101175.34
2024-01-11T00:24:01.166Z,101187.84
2024-01-11T00:26:31.115Z,101181.59
2024-01-11T00:29:01.215Z,101188.66
2024-01-11T00:31:31.327Z,101183.94
2024-01-11T00:34:01.337Z,101192.19
2024-01-11T00:36:31.666Z,101182.06
2024-01-11T00:39:01.742Z,101188.09
2024-01-11T00:41:31.675Z,101186.34
2024-01-11T00:44:01.730Z,101185.31
2024-01-11T00:46:31.676Z,101188.00
2024-01-11T00:49:01.826Z,101180.91
2024-01-11T00:51:31.928Z,101179.22
2024-01-11T00:54:01.851Z,101184.59
2024-01-11T00:56:32.058Z,101190.63
2024-01-11T00:59:03.053Z,101181.88
2024-01-11T01:01:33.058Z,101186.94
2024-01-11T01:04:03.089Z,101188.59
2024-01-11T01:06:33.165Z,101184.53
2024-01-11T01:09:04.700Z,101188.56
2024-01-11T01:11:34.604Z,101188.88
2024-01-11T01:14:04.854Z,101185.53
2024-01-11T01:16:35.492Z,101183.50
2024-01-11T01:19:05.476Z,101179.44
2024-01-11T01:21:35.435Z,101184.63
2024-01-11T01:24:05.679Z,101182.22
2024-01-11T01:26:36.200Z,101190.16
2024-01-11T01:29:06.303Z,101180.31
2024-01-11T01:31:39.600Z,101172.69
2024-01-11T01:34:10.555Z,101178.94
2024-01-11T01:36:40.645Z,101178.75
2024-01-11T01:39:10.918Z,101184.81
2024-01-11T01:41:40.918Z,101182.59
2024-01-11T01:44:11.130Z,101181.88
2024-01-11T01:46:41.227Z,101169.06
2024-01-11T01:49:13.424Z,101180.88
2024-01-11T01:51:44.125Z,101182.84
2024-01-11T01:54:16.989Z,101185.56
2024-01-11T01:56:47.213Z,101176.94
2024-01-11T01:59:20.597Z,101183.84
2024-01-11T02:01:51.064Z,101185.88
2024-01-11T02:04:21.213Z,101178.44
2024-01-11T02:06:52.906Z,101179.41
2024-01-11T02:09:26.894Z,101178.66
2024-01-11T02:12:00.064Z,101171.69
2024-01-11T02:14:30.039Z,101175.03
2024-01-11T02:17:00.419Z,101172.53
2024-01-11T02:19:30.794Z,101171.88
2024-01-11T02:22:03.469Z,101176.25
2024-01-11T02:24:36.392Z,101161.75
2024-01-11T02:27:08.554Z,101163.66
2024-01-11T02:29:39.391Z,101160.50
2024-01-11T02:32:10.551Z,101163.78
2024-01-11T02:34:40.581Z,101160.41
2024-01-11T02:37:13.517Z,101152.59
2024-01-11T02:39:43.575Z,101159.50
2024-01-11T02:42:13.578Z,101159.03
2024-01-11T02:44:43.625Z,101152.59
2024-01-11T02:47:13.657Z,101152.59
2024-01-11T02:49:43.572Z,101147.56
2024-01-11T02:52:14.090Z,101154.47
2024-01-11T02:54:44.020Z,101148.41
2024-01-11T02:57:13.964Z,101144.31
2024-01-11T02:59:46.956Z,101146.56
2024-01-11T03:02:16.936Z,101144.50
2024-01-11T03:04:49.259Z,101142.72
2024-01-11T03:07:19.293Z,101131.38
2024-01-11T03:09:49.203Z,101129.50
2024-01-11T03:12:19.860Z,101134.53
2024-01-11T03:14:50.596Z,101125.53
2024-01-11T03:17:21.489Z,101123.59
2024-01-11T03:19:51.378Z,101116.75
2024-01-11T03:22:21.277Z,101117.44
2024-01-11T03:24:52.253Z,101115.22
2024-01-11T03:27:22.010Z,101113.34
2024-01-11T03:29:52.295Z,101104.56
2024-01-11T03:32:25.384Z,101091.63
2024-01-11T03:34:55.824Z,101088.16
2024-01-11T03:37:26.205Z,101087.22
2024-01-11T03:39:56.152Z,101084.53
2024-01-11T03:42:26.323Z,101081.88
2024-01-11T03:44:56.345Z,101074.16
2024-01-11T03:47:26.377Z,101065.78
2024-01-11T03:49:56.483Z,101062.59
2024-01-11T03:52:27.283Z,101062.13
2024-01-11T03:54:59.646Z,101053.38
2024-01-11T03:57:29.626Z,101045.88
2024-01-11T04:00:01.011Z,101050.03
2024-01-11T04:02:34.891Z,101037.22
2024-01-11T04:05:05.973Z,101028.19
2024-01-11T04:07:36.018Z,101020.34
2024-01-11T04:10:06.257Z,101010.94
2024-01-11T04:12:36.335Z,101015.97
2024-01-11T04:15:06.930Z,101011.66
2024-01-11T04:17:37.752Z,101006.19
2024-01-11T04:20:10.620Z,101006.44
2024-01-11T04:22:40.885Z,100987.13
2024-01-11T04:25:13.479Z,101000.66
2024-01-11T04:27:43.561Z,100984.81
2024-01-11T04:30:14.890Z,100983.69
2024-01-11T04:32:45.007Z,100982.00
2024-01-11T04:35:16.826Z,100977.69
2024-01-11T04:37:47.068Z,100977.50
2024-01-11T04:40:17.126Z,100966.69
2024-01-11T04:42:47.407Z,100968.38
2024-01-11T04:45:18.146Z,100963.97
2024-01-11T04:47:48.327Z,100957.53
2024-01-11T04:50:21.502Z,100948.78
2024-01-11T04:52:53.359Z,100951.28
2024-01-11T04:55:23.264Z,100942.59
2024-01-11T04:57:53.291Z,100937.13
2024-01-11T05:00:23.241Z,100934.66
2024-01-11T05:02:53.192Z,100927.97
2024-01-11T05:05:24.062Z,100919.94
2024-01-11T05:07:54.142Z,100909.75
2024-01-11T05:10:24.089Z,100908.50
2024-01-11T05:12:54.008Z,100908.97
2024-01-11T05:15:29.572Z,100897.69
2024-01-11T05:18:02.990Z,100902.06
2024-01-11T05:20:33.134Z,100894.59
2024-01-11T05:23:03.177Z,100891.69
2024-01-11T05:25:36.940Z,100880.66
2024-01-11T05:28:07.045Z,100874.03
2024-01-11T05:30:37.785Z,100875.72
2024-01-11T05:33:07.970Z,100867.34
2024-01-11T05:35:38.157Z,100870.31
2024-01-11T05:38:08.151Z,100865.28
2024-01-11T05:40:38.625Z,100864.91
2024-01-11T05:43:09.068Z,100869.91
2024-01-11T05:45:47.424Z,100854.31
2024-01-11T05:48:19.067Z,100852.25
2024-01-11T05:50:49.845Z,100852.25
2024-01-11T05:53:23.021Z,100845.19
2024-01-11T05:55:56.392Z,100835.84
2024-01-11T05:58:26.459Z,100851.28
2024-01-11T06:00:57.731Z,100849.16
2024-01-11T06:03:27.715Z,100858.31
2024-01-11T06:06:01.426Z,100841.09
2024-01-11T06:08:34.923Z,100847.59
2024-01-11T06:11:06.229Z,100844.88
2024-01-11T06:13:36.779Z,100852.16
2024-01-11T06:16:07.870Z,100848.25
2024-01-11T06:18:39.368Z,100846.81
2024-01-11T06:21:09.434Z,100846.59
2024-01-11T06:23:39.503Z,100847.63
2024-01-11T06:26:10.804Z,100846.97
2024-01-11T06:28:41.000Z,100848.81
2024-01-11T06:31:14.711Z,100847.38
2024-01-11T06:33:46.475Z,100850.31
2024-01-11T06:36:17.933Z,100850.78
2024-01-11T06:38:47.913Z,100852.22
2024-01-11T06:41:17.861Z,100853.91
2024-01-11T06:43:48.158Z,100859.78
2024-01-11T06:46:23.429Z,100860.25
2024-01-11T06:48:53.375Z,100864.31
2024-01-11T06:51:26.514Z,100861.19
2024-01-11T06:53:57.143Z,100856.59
2024-01-11T06:56:28.252Z,100859.88
2024-01-11T06:58:59.995Z,100859.91
2024-01-11T07:01:30.673Z,100853.47
2024-01-11T07:04:00.673Z,100853.63
2024-01-11T07:06:30.697Z,100856.50
2024-01-11T07:09:01.180Z,100856.09
2024-01-11T07:11:31.327Z,100859.03
2024-01-11T07:14:01.574Z,100859.28
2024-01-11T07:16:31.530Z,100850.34
2024-01-11T07:19:01.704Z,100853.88
2024-01-11T07:21:33.334Z,100854.72
2024-01-11T07:24:03.859Z,100857.84
2024-01-11T07:26:34.156Z,100858.66
2024-01-11T07:29:04.637Z,100849.91
2024-01-11T07:31:36.686Z,100854.47
2024-01-11T07:34:07.138Z,100867.81
2024-01-11T07:36:37.173Z,100860.72
2024-01-11T07:39:08.046Z,100868.19
2024-01-11T07:41:38.334Z,100868.59
2024-01-11T07:44:11.005Z,100872.75
2024-01-11T07:46:46.936Z,100876.50
2024-01-11T07:49:23.602Z,100881.03
2024-01-11T07:51:54.555Z,100888.53
2024-01-11T07:54:24.459Z,100890.22
2024-01-11T07:56:54.990Z,100898.72
2024-01-11T07:59:28.048Z,100890.13
2024-01-11T08:01:59.017Z,100890.53
2024-01-11T08:04:28.908Z,100892.59
2024-01-11T08:06:58.896Z,100895.53
2024-01-11T08:09:29.132Z,100896.75
2024-01-11T08:11:59.128Z,100901.91
2024-01-11T08:14:29.229Z,100903.34
2024-01-11T08:17:00.697Z,100899.81
2024-01-11T08:19:30.523Z,100911.22
2024-01-11T08:22:01.497Z,100911.88
2024-01-11T08:24:32.695Z,100913.94
2024-01-11T08:27:02.932Z,100922.69
2024-01-11T08:29:32.968Z,100920.00
2024-01-11T08:32:15.471Z,100925.78
2024-01-11T08:34:54.393Z,100918.22
2024-01-11T08:37:27.121Z,100926.19
2024-01-11T08:39:58.473Z,100928.03
2024-01-11T08:42:29.491Z,100928.03
2024-01-11T08:45:08.705Z,100927.88
2024-01-11T08:47:42.399Z,100927.47
2024-01-11T08:50:15.894Z,100939.50
2024-01-11T08:52:58.474Z,100944.28
2024-01-11T08:55:32.931Z,100949.66
2024-01-11T08:58:03.043Z,100946.88
2024-01-11T09:00:34.778Z,100948.13
2024-01-11T09:03:05.452Z,100955.59
2024-01-11T09:05:38.167Z,100960.16
2024-01-11T09:08:09.187Z,100962.81
2024-01-11T09:10:39.220Z,100963.84
2024-01-11T09:13:11.780Z,100970.94
2024-01-11T09:15:43.133Z,100973.63
2024-01-11T09:18:13.361Z,100971.31
2024-01-11T09:20:43.958Z,100972.09
2024-01-11T09:23:15.060Z,100985.38
2024-01-11T09:25:45.340Z,100982.38
2024-01-11T09:28:15.230Z,100983.88
2024-01-11T09:30:45.188Z,100985.16
2024-01-11T09:33:16.021Z,100991.91
2024-01-11T09:35:46.502Z,100994.00
2024-01-11T09:38:16.630Z,100998.50
2024-01-11T09:40:46.813Z,100996.00
2024-01-11T09:43:17.153Z,101003.09
2024-01-11T09:45:47.816Z,101004.13
2024-01-11T09:48:17.977Z,101003.47
2024-01-11T09:50:47.968Z,101009.91
2024-01-11T09:53:19.299Z,101010.94
2024-01-11T09:55:49.921Z,101016.09
2024-01-11T09:58:20.920Z,101022.34
2024-01-11T10:00:53.551Z,101010.50
2024-01-11T10:03:28.556Z,101025.59
2024-01-11T10:06:01.939Z,101027.94
2024-01-11T10:08:32.843Z,101026.19
2024-01-11T10:11:05.664Z,101026.38
2024-01-11T10:13:38.022Z,101035.78
2024-01-11T10:16:17.968Z,101042.69
2024-01-11T10:18:48.041Z,101035.34
2024-01-11T10:21:19.304Z,101036.09
2024-01-11T10:23:49.298Z,101050.16
2024-01-11T10:26:20.115Z,101046.16
2024-01-11T10:28:50.753Z,101034.69
2024-01-11T10:31:21.839Z,101041.75
2024-01-11T10:33:51.911Z,101043.81
2024-01-11T10:36:22.030Z,101052.13
2024-01-11T10:38:53.650Z,101056.69
2024-01-11T10:41:23.616Z,101058.72
2024-01-11T10:43:54.692Z,101066.34
2024-01-11T10:46:28.738Z,101068.56
2024-01-11T10:49:01.700Z,101066.91
2024-01-11T10:51:34.943Z,101064.84
2024-01-11T10:54:05.120Z,101063.00
2024-01-11T10:56:35.671Z,101069.44
2024-01-11T10:59:06.948Z,101073.97
2024-01-11T11:01:37.092Z,101073.69
2024-01-11T11:04:09.246Z,101064.56
2024-01-11T11:06:39.688Z,101068.50
2024-01-11T11:09:10.456Z,101075.09
2024-01-11T11:11:43.743Z,101075.09
2024-01-11T11:14:19.861Z,101080.13
2024-01-11T11:16:50.351Z,101084.13
2024-01-11T11:19:23.814Z,101080.13
2024-01-11T11:21:54.354Z,101093.00
2024-01-11T11:24:24.579Z,101094.28
2024-01-11T11:26:54.709Z,101094.88
2024-01-11T11:29:25.623Z,101097.09
2024-01-11T11:31:59.305Z,101102.84
2024-01-11T11:34:58.875Z,101102.50
2024-01-11T11:37:29.027Z,101104.53
2024-01-11T11:40:02.078Z,101097.44
2024-01-11T11:42:37.595Z,101093.06
2024-01-11T11:45:13.885Z,101112.34
2024-01-11T11:47:46.725Z,101109.47
2024-01-11T11:50:17.206Z,101109.66
2024-01-11T11:52:47.586Z,101113.84
2024-01-11T11:55:19.379Z,101114.44
2024-01-11T11:57:50.464Z,101118.53
2024-01-11T12:00:21.640Z,101118.53
2024-01-11T12:02:55.146Z,101116.34
2024-01-11T12:05:26.343Z,101122.25
2024-01-11T12:07:57.891Z,101121.75
2024-01-11T12:10:27.886Z,101130.41
2024-01-11T12:12:57.890Z,101118.31
2024-01-11T12:15:30.128Z,101128.75
2024-01-11T12:18:03.139Z,101126.50
2024-01-11T12:20:33.331Z,101124.00
2024-01-11T12:23:04.789Z,101123.16
2024-01-11T12:25:35.174Z,101128.00
2024-01-11T12:28:05.418Z,101130.41
2024-01-11T12:30:35.570Z,101135.47
2024-01-11T12:33:06.437Z,101148.97
2024-01-11T12:35:36.764Z,101141.22
2024-01-11T12:38:08.536Z,101139.53
2024-01-11T12:40:44.758Z,101136.84
2024-01-11T12:43:15.122Z,101148.19
2024-01-11T12:45:45.535Z,101134.88
2024-01-11T12:48:18.324Z,101142.31
2024-01-11T12:50:48.884Z,101147.72
2024-01-11T12:53:22.036Z,101146.41
2024-01-11T12:56:12.871Z,101137.63
2024-01-11T12:58:44.591Z,101126.47
2024-01-11T13:01:16.389Z,101139.41
2024-01-11T13:03:51.130Z,101135.91
2024-01-11T13:06:21.799Z,101142.69
2024-01-11T13:08:52.940Z,101142.69
2024-01-11T13:11:23.342Z,101131.56
2024-01-11T13:13:54.130Z,101133.91
2024-01-11T13:16:24.440Z,101128.53
2024-01-11T13:18:54.721Z,101129.34
2024-01-11T13:21:24.806Z,101132.94
2024-01-11T13:23:55.915Z,101135.94
2024-01-11T13:26:29.124Z,101136.75
2024-01-11T13:28:59.403Z,101133.03
2024-01-11T13:31:29.438Z,101130.53
2024-01-11T13:34:00.521Z,101140.75
2024-01-11T13:36:34.354Z,101130.59
2024-01-11T13:39:07.005Z,101139.06
2024-01-11T13:41:37.947Z,101134.84
2024-01-11T13:44:11.728Z,101137.09
2024-01-11T13:46:46.290Z,101135.09
2024-01-11T13:49:18.254Z,101133.88
2024-01-11T13:51:54.138Z,101138.81
2024-01-11T13:54:31.890Z,101137.13
2024-01-11T13:57:02.659Z,101137.13
2024-01-11T13:59:32.823Z,101139.19
2024-01-11T14:02:04.152Z,101137.66
2024-01-11T14:04:36.280Z,101138.31
2024-01-11T14:07:06.642Z,101131.44
2024-01-11T14:09:38.294Z,101134.81
2024-01-11T14:12:13.773Z,101149.97
2024-01-11T14:14:47.095Z,101138.88
2024-01-11T14:17:17.159Z,101127.06
2024-01-11T14:19:47.463Z,101132.47
2024-01-11T14:22:24.209Z,101134.50
2024-01-11T14:25:02.588Z,101138.22
2024-01-11T14:27:33.900Z,101133.19
2024-01-11T14:30:07.596Z,101131.50
2024-01-11T14:32:38.512Z,101129.09
2024-01-11T14:35:12.978Z,101121.06
2024-01-11T14:37:46.564Z,101131.50
2024-01-11T14:40:18.313Z,101125.28
2024-01-11T14:42:51.440Z,101129.72
2024-01-11T14:45:24.696Z,101124.78
2024-01-11T14:47:55.307Z,101114.00
2024-01-11T14:50:25.501Z,101119.94
2024-01-11T14:52:59.499Z,101117.91
2024-01-11T14:55:29.751Z,101107.63
2024-01-11T14:58:03.065Z,101115.91
2024-01-11T15:00:35.809Z,101120.97
2024-01-11T15:03:06.741Z,101111.34
2024-01-11T15:05:41.181Z,101120.28
2024-01-11T15:08:11.808Z,101112.34
2024-01-11T15:10:41.888Z,101113.34
2024-01-11T15:13:13.274Z,101112.03
2024-01-11T15:15:45.128Z,101113.69
2024-01-11T15:18:16.712Z,101106.16
2024-01-11T15:20:46.873Z,101104.94
2024-01-11T15:23:22.447Z,101110.69
2024-01-11T15:25:58.733Z,101110.69
2024-01-11T15:28:30.250Z,101111.06
2024-01-11T15:31:00.526Z,101114.09
2024-01-11T15:33:33.275Z,101117.16
2024-01-11T15:36:05.153Z,101115.00
2024-01-11T15:38:39.209Z,101114.50
2024-01-11T15:41:10.056Z,101110.09
2024-01-11T15:43:45.521Z,101115.84
2024-01-11T15:46:16.535Z,101116.50
2024-01-11T15:48:47.876Z,101113.81
2024-01-11T15:51:19.540Z,101121.22
2024-01-11T15:53:51.635Z,101119.03
2024-01-11T15:56:24.918Z,101117.50
2024-01-11T15:58:55.323Z,101115.84
2024-01-11T16:01:29.452Z,101109.78
2024-01-11T16:03:59.711Z,101109.47
2024-01-11T16:06:30.648Z,101094.81
2024-01-11T16:09:00.726Z,101102.03
2024-01-11T16:11:33.528Z,101096.53
2024-01-11T16:14:03.692Z,101104.06
2024-01-11T16:16:36.240Z,101102.75
2024-01-11T16:19:06.638Z,101101.41
2024-01-11T16:21:37.059Z,101101.41
2024-01-11T16:24:08.405Z,101100.41
2024-01-11T16:26:41.059Z,101102.09
2024-01-11T16:29:12.567Z,101093.00
2024-01-11T16:31:44.482Z,101089.66
2024-01-11T16:34:15.856Z,101088.72
2024-01-11T16:36:47.690Z,101088.34
2024-01-11T16:39:18.712Z,101090.41
2024-01-11T16:41:51.757Z,101090.78
2024-01-11T16:44:23.582Z,101092.28
2024-01-11T16:46:55.868Z,101092.84
2024-01-11T16:49:26.195Z,101089.31
2024-01-11T16:51:57.447Z,101090.84
2024-01-11T16:54:27.894Z,101097.91
2024-01-11T16:56:58.363Z,101088.81
2024-01-11T16:59:29.113Z,101088.84
2024-01-11T17:02:00.104Z,101081.44
2024-01-11T17:04:33.718Z,101083.13
2024-01-11T17:07:04.206Z,101086.16
2024-01-11T17:09:34.290Z,101080.78
2024-01-11T17:12:04.974Z,101077.56
2024-01-11T17:14:34.941Z,101074.72
2024-01-11T17:17:07.819Z,101072.34
2024-01-11T17:19:41.088Z,101067.66
2024-01-11T17:22:12.744Z,101061.25
2024-01-11T17:24:44.039Z,101058.56
2024-01-11T17:27:16.748Z,101057.72
2024-01-11T17:29:48.268Z,101052.81
2024-01-11T17:32:21.295Z,101047.09
2024-01-11T17:34:57.319Z,101056.19
2024-01-11T17:37:27.715Z,101044.09
2024-01-11T17:39:58.253Z,101035.03
2024-01-11T17:42:28.280Z,101030.63
2024-01-11T17:44:59.608Z,101026.44
2024-01-11T17:47:29.690Z,101028.28
2024-01-11T17:49:59.801Z,101028.63
2024-01-11T17:52:31.344Z,101022.53
2024-01-11T17:55:01.875Z,101036.03
2024-01-11T17:57:32.691Z,101019.88
2024-01-11T18:00:02.661Z,101016.03
2024-01-11T18:02:34.123Z,101011.47
2024-01-11T18:05:04.052Z,101015.84
2024-01-11T18:07:34.286Z,101018.88
2024-01-11T18:10:04.359Z,101019.53
2024-01-11T18:12:37.558Z,101020.06
2024-01-11T18:15:09.588Z,101022.91
2024-01-11T18:17:42.736Z,101017.53
2024-01-11T18:20:13.191Z,101024.25
2024-01-11T18:22:43.172Z,101024.94
2024-01-11T18:25:13.188Z,101022.56
2024-01-11T18:27:44.872Z,101028.97
2024-01-11T18:30:15.574Z,101012.13
2024-01-11T18:32:45.720Z,101012.34
2024-01-11T18:35:20.143Z,101017.53
2024-01-11T18:37:53.046Z,101023.59
2024-01-11T18:40:26.101Z,101016.19
2024-01-11T18:42:56.885Z,101004.75
2024-01-11T18:45:27.536Z,101007.09
2024-01-11T18:47:57.575Z,101008.13
2024-01-11T18:50:29.889Z,101011.84
2024-01-11T18:52:59.833Z,101006.28
2024-01-11T18:55:29.605Z,101007.78
2024-01-11T18:58:00.288Z,101005.97
2024-01-11T19:00:33.018Z,100992.97
2024-01-11T19:03:03.215Z,101002.41
2024-01-11T19:05:33.583Z,101002.59
2024-01-11T19:08:11.923Z,100998.22
2024-01-11T19:10:42.338Z,100999.91
2024-01-11T19:13:11.957Z,100999.06
2024-01-11T19:15:41.913Z,100984.59
2024-01-11T19:18:15.093Z,100995.88
2024-01-11T19:20:55.115Z,100996.34
2024-01-11T19:23:29.003Z,100996.34
2024-01-11T19:26:00.052Z,100991.19
2024-01-11T19:28:30.103Z,100991.00
2024-01-11T19:31:00.747Z,100986.13
2024-01-11T19:33:31.161Z,101000.59
2024-01-11T19:36:01.252Z,100989.31
2024-01-11T19:38:31.232Z,100993.00
2024-01-11T19:41:01.369Z,100992.34
2024-01-11T19:43:31.423Z,100993.34
2024-01-11T19:46:01.268Z,100988.47
2024-01-11T19:48:31.367Z,100991.84
2024-01-11T19:51:05.920Z,100987.97
2024-01-11T19:53:37.704Z,100986.81
2024-01-11T19:56:18.242Z,100986.81
2024-01-11T19:58:50.307Z,100987.13
2024-01-11T20:01:20.952Z,100984.78
2024-01-11T20:03:50.982Z,100990.84
2024-01-11T20:06:21.750Z,100986.81
2024-01-11T20:08:52.254Z,100987.63
2024-01-11T20:11:22.268Z,100992.34
2024-01-11T20:13:52.226Z,100995.38
2024-01-11T20:16:22.099Z,100992.88
2024-01-11T20:18:52.155Z,100990.84
2024-01-11T20:21:22.925Z,100985.59
2024-01-11T20:23:52.803Z,100987.28
2024-01-11T20:26:24.670Z,100981.22
2024-01-11T20:28:55.642Z,100981.06
2024-01-11T20:31:25.532Z,100977.72
2024-01-11T20:33:58.175Z,100975.53
2024-01-11T20:36:28.815Z,100985.59
2024-01-11T20:38:59.084Z,100987.28
2024-01-11T20:41:29.084Z,100988.66
2024-01-11T20:44:09.072Z,100993.69
2024-01-11T20:46:38.997Z,100996.91
2024-01-11T20:49:08.883Z,100991.34
2024-01-11T20:51:44.792Z,100990.63
2024-01-11T20:54:14.671Z,100996.00
2024-01-11T20:56:48.375Z,100998.41
2024-01-11T20:59:18.360Z,100992.34
2024-01-11T21:01:49.044Z,100996.34
2024-01-11T21:04:18.974Z,101002.44
2024-01-11T21:06:50.050Z,101005.78
2024-01-11T21:09:20.821Z,101012.84
2024-01-11T21:11:53.445Z,101011.16
2024-01-11T21:14:24.666Z,101015.56
2024-01-11T21:16:55.114Z,101017.06
2024-01-11T21:19:25.249Z,101018.59
2024-01-11T21:21:55.262Z,101017.53
2024-01-11T21:24:25.449Z,101025.63
2024-01-11T21:26:55.595Z,101026.13
2024-01-11T21:29:25.918Z,101031.31
2024-01-11T21:31:55.854Z,101032.03
2024-01-11T21:34:25.740Z,101034.03
2024-01-11T21:36:55.515Z,101023.97
2024-01-11T21:39:26.652Z,101038.06
2024-01-11T21:41:56.646Z,101033.69
2024-01-11T21:44:26.377Z,101042.28
2024-01-11T21:46:56.038Z,101048.66
2024-01-11T21:52:12.988Z,101043.94
2024-01-11T21:54:45.658Z,101050.19
2024-01-11T21:57:15.566Z,101052.88
2024-01-11T21:59:45.315Z,101051.88
2024-01-11T22:02:15.995Z,101059.91
2024-01-11T22:04:45.951Z,101067.97
2024-01-11T22:07:15.874Z,101067.50
2024-01-11T22:09:46.003Z,101070.84
2024-01-11T22:12:16.047Z,101074.03
2024-01-11T22:14:46.206Z,101074.41
2024-01-11T22:17:16.536Z,101078.91
2024-01-11T22:19:47.538Z,101083.47
2024-01-11T22:22:17.667Z,101086.16
2024-01-11T22:24:47.360Z,101086.84
2024-01-11T22:27:17.219Z,101095.06
2024-01-11T22:29:47.102Z,101091.53
2024-01-11T22:32:17.030Z,101091.03
2024-01-11T22:34:49.914Z,101095.56
2024-01-11T22:37:19.893Z,101101.44
2024-01-11T22:39:49.808Z,101095.25
2024-01-11T22:42:19.511Z,101097.06
2024-01-11T22:44:49.490Z,101103.31
2024-01-11T22:47:21.904Z,101102.47
2024-01-11T22:49:51.552Z,101112.06
2024-01-11T22:52:21.922Z,101109.69
2024-01-11T22:54:51.601Z,101108.00
2024-01-11T22:57:21.526Z,101113.41
2024-01-11T22:59:52.308Z,101119.13
2024-01-11T23:02:23.494Z,101124.84
2024-01-11T23:04:53.477Z,101122.81
2024-01-11T23:07:23.425Z,101124.13
2024-01-11T23:09:55.446Z,101125.50
2024-01-11T23:12:27.755Z,101129.38
2024-01-11T23:14:57.771Z,101134.06
2024-01-11T23:17:27.721Z,101139.97
2024-01-11T23:19:57.840Z,101137.72
2024-01-11T23:22:28.150Z,101137.94
2024-01-11T23:25:07.164Z,101140.97
2024-01-11T23:27:38.260Z,101151.72
2024-01-11T23:30:10.682Z,101155.44
2024-01-11T23:32:40.836Z,101154.09
2024-01-11T23:35:11.198Z,101161.47
2024-01-11T23:37:41.147Z,101159.81
2024-01-11T23:40:11.610Z,101158.25
2024-01-11T23:42:41.561Z,101163.47
2024-01-11T23:45:11.811Z,101165.50
2024-01-11T23:47:42.740Z,101170.56
2024-01-11T23:50:13.716Z,101174.25
2024-01-11T23:52:43.813Z,101173.28
2024-01-11T23:55:14.170Z,101171.91
2024-01-11T23:57:47.708Z,101179.31
